佐賀空港の過去48時間の天気

佐賀空港 (Saga)

現在時刻: 9/16 12:10 JST (9/16 03:10 UTC) 以下の時間は現地時間です。

過去48時間のMETAR気象情報
時間 風向 風速(m/s) 視程 気温(℃) 湿度(%) 気圧(hPa) 天気現象
16 12:00 6 10km以上 30 59 1005
16 11:00 5 10km以上 29 62 1006
16 10:00 北北東 6 10km以上 29 62 1006
16 09:00 北北東 5 10km以上 28 66 1006
16 08:00 3 10km以上 27 79 1006
16 07:00 北北西 2 10km以上 25 83 1006
16 06:00 3 10km以上 23 94 1005
15 23:00 北北西 3 10km以上 25 83 1006
15 22:00 2 10km以上 25 83 1006
15 21:00 北西 2 10km以上 25 89 1006
15 20:00 3 10km以上 26 79 1006
15 19:00 4 10km以上 26 84 1005
15 18:00 5 10km以上 28 70 1005
15 17:00 7 10km以上 30 66 1004
15 16:00 北東 5 10km以上 33 56 1004
15 15:00 北東 4 10km以上 33 53 1004
15 14:00 北北東 4 10km以上 33 53 1005
15 13:00 不定 2 10km以上 32 63 1006
15 12:00 不定 2 10km以上 31 70 1007
15 11:00 北東 2 10km以上 29 74 1007
15 10:00 北北東 2 10km以上 29 70 1008
15 09:00 3 10km以上 28 74 1008
15 08:00 3 10km以上 26 84 1008
15 07:00 2 10km以上 24 94 1008
15 06:00 北北西 3 10km以上 23 94 1008
14 23:00 西 2 10km以上 26 89 1009
14 22:00 北西 3 10km以上 27 84 1009
14 21:00 西北西 3 10km以上 27 84 1009
14 20:00 北西 2 10km以上 27 84 1008
14 19:00 不定 1 10km以上 28 79 1008
14 18:00 不定 1 10km以上 29 74 1007
14 17:00 北北西 3 10km以上 31 66 1007
14 16:00 西南西 3 10km以上 32 59 1007
14 15:00 南西 4 10km以上 32 63 1007
14 14:00 南西 4 10km以上 31 66 1007
14 13:00 南西 4 10km以上 31 66 1008
RJFS 160300Z 01012KT 330V040 9999 FEW025 SCT035 30/21 Q1005
RJFS 160200Z 36009KT 330V030 9999 FEW025 SCT035 29/21 Q1006
RJFS 160100Z 02011KT 9999 FEW030 29/21 Q1006
RJFS 160000Z 03009KT 9999 FEW030 28/21 Q1006
RJFS 152300Z 01005KT 330V050 9999 FEW030 27/23 Q1006
RJFS 152200Z 33003KT 9999 FEW020 25/22 Q1006
RJFS 152100Z 35005KT 9999 FEW025 BKN035 23/22 Q1005
RJFS 151400Z 34006KT 9999 FEW030 BKN060 25/22 Q1006
RJFS 151300Z 35003KT 320V020 9999 FEW030 SCT060 25/22 Q1006
RJFS 151200Z 32004KT 9999 FEW030 25/23 Q1006
RJFS 151100Z 35005KT 320V030 9999 FEW025 26/22 Q1006
RJFS 151000Z 36007KT 9999 FEW020 26/23 Q1005
RJFS 150900Z 35010KT 9999 FEW025 28/22 Q1005
RJFS 150800Z 35013KT 9999 FEW025 30/23 Q1004
RJFS 150700Z 04010KT 9999 FEW030 33/23 Q1004
RJFS 150600Z 04008KT 350V070 9999 FEW030 SCT035 33/22 Q1004
RJFS 150500Z 03008KT 360V070 9999 FEW035 33/22 Q1005
RJFS 150400Z VRB04KT 9999 FEW030 SCT035 32/24 Q1006
RJFS 150300Z VRB04KT 9999 FEW025 SCT035 31/25 Q1007
RJFS 150200Z 04004KT 330V100 9999 FEW025 29/24 Q1007
RJFS 150100Z 02003KT 330V100 9999 FEW020 29/23 Q1008
RJFS 150000Z 35005KT 320V040 9999 FEW020 28/23 Q1008
RJFS 142300Z 36005KT 330V030 9999 FEW020 26/23 Q1008
RJFS 142200Z 35003KT 320V040 9999 FEW020 24/23 Q1008
RJFS 142100Z 33005KT 9999 FEW020 23/22 Q1008
RJFS 141400Z 28004KT 9999 FEW040 BKN080 26/24 Q1009
RJFS 141300Z 31005KT 9999 SCT040 BKN070 27/24 Q1009
RJFS 141200Z 29005KT 9999 SCT040 BKN050 27/24 Q1009
RJFS 141100Z 32003KT 270V360 9999 BKN040 27/24 Q1008
RJFS 141000Z VRB01KT 9999 SCT040 BKN/// 28/24 Q1008
RJFS 140900Z VRB02KT 9999 SCT040 29/24 Q1007
RJFS 140800Z 34005KT 9999 FEW035 SCT045 31/24 Q1007
RJFS 140700Z 24006KT 9999 FEW035 32/23 Q1007
RJFS 140600Z 22007KT 9999 FEW035 32/24 Q1007
RJFS 140500Z 22008KT 9999 FEW030 31/24 Q1007
RJFS 140400Z 22008KT 9999 FEW030 31/24 Q1008